createdAt,value
2019-02-17T00:00:14.640Z,89.90
2019-02-17T00:02:43.117Z,89.30
2019-02-17T00:05:11.585Z,89.30
2019-02-17T00:07:40.361Z,89.30
2019-02-17T00:10:08.966Z,88.80
2019-02-17T00:12:37.435Z,89.50
2019-02-17T00:15:08.433Z,88.70
2019-02-17T00:17:37.165Z,89.00
2019-02-17T00:20:08.145Z,88.50
2019-02-17T00:22:36.802Z,88.00
2019-02-17T00:25:06.732Z,88.90
2019-02-17T00:27:35.185Z,86.40
2019-02-17T00:30:05.310Z,87.80
2019-02-17T00:32:33.771Z,86.50
2019-02-17T00:35:02.260Z,86.00
2019-02-17T00:37:30.725Z,84.30
2019-02-17T00:39:59.199Z,85.00
2019-02-17T00:42:27.933Z,83.30
2019-02-17T00:44:56.423Z,83.30
2019-02-17T00:47:24.912Z,82.90
2019-02-17T00:49:53.367Z,82.50
2019-02-17T00:52:21.915Z,82.30
2019-02-17T00:54:50.643Z,80.70
2019-02-17T00:57:19.132Z,79.70
2019-02-17T00:59:47.591Z,81.30
2019-02-17T01:02:16.058Z,78.10
2019-02-17T01:04:44.515Z,79.30
2019-02-17T01:07:13.011Z,80.80
2019-02-17T01:09:41.481Z,78.80
2019-02-17T01:12:09.929Z,78.60
2019-02-17T01:14:38.417Z,77.40
2019-02-17T01:17:06.870Z,77.70
2019-02-17T01:19:35.313Z,75.20
2019-02-17T01:22:03.849Z,75.40
2019-02-17T01:24:32.319Z,74.70
2019-02-17T01:27:00.873Z,75.90
2019-02-17T01:29:29.676Z,74.00
2019-02-17T01:31:58.490Z,73.30
2019-02-17T01:34:26.962Z,71.70
2019-02-17T01:36:55.424Z,75.60
2019-02-17T01:39:23.875Z,73.20
2019-02-17T01:41:52.356Z,75.00
2019-02-17T01:44:20.806Z,71.40
2019-02-17T01:46:49.579Z,72.40
2019-02-17T01:49:18.365Z,72.40
2019-02-17T01:51:46.856Z,73.70
2019-02-17T01:54:15.311Z,72.90
2019-02-17T01:56:43.793Z,73.10
2019-02-17T01:59:12.256Z,72.20
2019-02-17T02:01:40.726Z,72.10
2019-02-17T02:04:09.198Z,74.00
2019-02-17T02:06:37.662Z,73.60
2019-02-17T02:09:09.304Z,71.80
2019-02-17T02:11:37.741Z,73.70
2019-02-17T02:14:06.550Z,70.30
2019-02-17T02:16:35.076Z,70.10
2019-02-17T02:19:03.516Z,71.10
2019-02-17T02:21:32.000Z,71.10
2019-02-17T02:24:00.469Z,69.50
2019-02-17T02:26:29.283Z,71.20
2019-02-17T02:28:57.744Z,69.50
2019-02-17T02:31:26.210Z,71.10
2019-02-17T02:33:54.745Z,71.50
2019-02-17T02:36:23.227Z,71.60
2019-02-17T02:38:51.678Z,70.70
2019-02-17T02:41:20.130Z,70.70
2019-02-17T02:43:48.612Z,70.50
2019-02-17T02:46:17.094Z,70.20
2019-02-17T02:48:45.539Z,69.20
2019-02-17T02:51:14.302Z,70.60
2019-02-17T02:53:42.777Z,70.70
2019-02-17T02:56:11.262Z,68.80
2019-02-17T02:58:39.803Z,72.00
2019-02-17T03:01:09.670Z,68.30
2019-02-17T03:03:38.181Z,68.10
2019-02-17T03:06:13.838Z,66.10
2019-02-17T03:08:42.281Z,65.60
2019-02-17T03:11:10.738Z,67.00
2019-02-17T03:13:39.219Z,67.80
2019-02-17T03:16:07.683Z,68.40
2019-02-17T03:18:36.155Z,68.50
2019-02-17T03:21:04.597Z,68.90
2019-02-17T03:23:33.103Z,70.00
2019-02-17T03:26:01.615Z,70.80
2019-02-17T03:28:30.430Z,70.90
2019-02-17T03:30:58.909Z,71.80
2019-02-17T03:33:27.354Z,67.70
2019-02-17T03:35:55.835Z,66.80
2019-02-17T03:38:24.295Z,66.70
2019-02-17T03:40:52.767Z,68.00
2019-02-17T03:43:21.199Z,67.20
2019-02-17T03:45:49.687Z,67.00
2019-02-17T03:48:18.158Z,70.70
2019-02-17T03:50:46.987Z,69.60
2019-02-17T03:53:15.611Z,69.10
2019-02-17T03:55:44.072Z,71.10
2019-02-17T03:58:12.849Z,72.70
2019-02-17T04:00:41.308Z,72.90
2019-02-17T04:03:10.036Z,73.80
2019-02-17T04:05:38.482Z,74.00
2019-02-17T04:08:07.591Z,74.40
2019-02-17T04:10:36.154Z,74.80
2019-02-17T04:13:04.621Z,75.20
2019-02-17T04:15:33.079Z,76.40
2019-02-17T04:18:01.564Z,78.30
2019-02-17T04:20:30.029Z,79.20
2019-02-17T04:22:58.500Z,79.30
2019-02-17T04:25:26.961Z,78.00
2019-02-17T04:27:55.753Z,77.60
2019-02-17T04:30:29.407Z,79.30
2019-02-17T04:32:54.424Z,77.10
2019-02-17T04:35:22.883Z,77.10
2019-02-17T04:37:51.372Z,73.50
2019-02-17T04:40:19.817Z,74.70
2019-02-17T04:42:48.371Z,74.60
2019-02-17T04:45:16.827Z,72.90
2019-02-17T04:47:45.312Z,74.60
2019-02-17T04:50:14.025Z,75.00
2019-02-17T04:52:42.505Z,73.10
2019-02-17T04:55:10.948Z,72.70
2019-02-17T04:57:39.416Z,72.50
2019-02-17T05:00:09.719Z,74.30
2019-02-17T05:02:38.483Z,75.40
2019-02-17T05:05:07.113Z,76.00
2019-02-17T05:07:35.643Z,76.90
2019-02-17T05:10:04.563Z,76.10
2019-02-17T05:12:33.021Z,76.60
2019-02-17T05:15:01.514Z,76.40
2019-02-17T05:17:29.957Z,75.90
2019-02-17T05:19:58.443Z,75.20
2019-02-17T05:22:26.909Z,76.00
2019-02-17T05:24:55.560Z,76.70
2019-02-17T05:27:24.332Z,77.90
2019-02-17T05:29:52.777Z,79.10
2019-02-17T05:32:21.259Z,78.70
2019-02-17T05:34:49.963Z,79.60
2019-02-17T05:37:18.522Z,79.80
2019-02-17T05:39:47.041Z,80.30
2019-02-17T05:42:15.509Z,79.90
2019-02-17T05:44:43.957Z,80.00
2019-02-17T05:47:12.443Z,80.80
2019-02-17T05:49:41.182Z,80.30
2019-02-17T05:52:09.650Z,79.40
2019-02-17T05:54:38.108Z,79.00
2019-02-17T05:57:06.637Z,76.90
2019-02-17T05:59:35.095Z,78.00
2019-02-17T06:02:03.561Z,77.60
2019-02-17T06:04:32.030Z,76.90
2019-02-17T06:07:00.478Z,78.10
2019-02-17T06:09:28.935Z,77.10
2019-02-17T06:11:57.407Z,76.70
2019-02-17T06:14:25.897Z,77.30
2019-02-17T06:16:54.382Z,77.10
2019-02-17T06:19:23.174Z,77.40
2019-02-17T06:21:51.624Z,77.20
2019-02-17T06:24:20.104Z,77.00
2019-02-17T06:26:48.549Z,77.70
2019-02-17T06:29:16.999Z,76.90
2019-02-17T06:31:45.504Z,76.40
2019-02-17T06:34:13.969Z,77.30
2019-02-17T06:36:42.426Z,77.50
2019-02-17T06:39:10.909Z,79.30
2019-02-17T06:41:39.379Z,79.00
2019-02-17T06:44:07.852Z,80.80
2019-02-17T06:46:37.951Z,80.70
2019-02-17T06:49:06.412Z,80.30
2019-02-17T06:51:34.895Z,80.70
2019-02-17T06:54:03.339Z,79.60
2019-02-17T06:56:33.449Z,80.90
2019-02-17T06:59:02.258Z,83.10
2019-02-17T07:01:30.711Z,83.00
2019-02-17T07:03:59.201Z,83.60
2019-02-17T07:06:29.359Z,82.80
2019-02-17T07:08:57.857Z,82.90
2019-02-17T07:11:26.324Z,83.80
2019-02-17T07:13:54.778Z,83.90
2019-02-17T07:16:23.713Z,83.10
2019-02-17T07:18:52.472Z,82.70
2019-02-17T07:21:20.947Z,84.20
2019-02-17T07:23:49.411Z,84.40
2019-02-17T07:26:17.943Z,85.80
2019-02-17T07:28:46.401Z,86.80
2019-02-17T07:31:15.177Z,87.70
2019-02-17T07:33:43.913Z,86.00
2019-02-17T07:36:12.661Z,86.60
2019-02-17T07:38:41.117Z,87.60
2019-02-17T07:41:09.589Z,87.50
2019-02-17T07:43:38.064Z,87.00
2019-02-17T07:46:06.600Z,87.00
2019-02-17T07:48:35.089Z,88.10
2019-02-17T07:51:03.972Z,85.90
2019-02-17T07:53:32.428Z,85.50
2019-02-17T07:56:00.908Z,88.80
2019-02-17T07:58:29.659Z,91.70
2019-02-17T08:00:58.121Z,92.80
2019-02-17T08:03:26.613Z,92.10
2019-02-17T08:05:55.066Z,92.10
2019-02-17T08:08:23.608Z,91.20
2019-02-17T08:10:52.084Z,91.20
2019-02-17T08:13:20.543Z,91.10
2019-02-17T08:15:49.023Z,91.10
2019-02-17T08:18:17.503Z,90.80
2019-02-17T08:20:45.951Z,90.70
2019-02-17T08:23:14.431Z,90.70
2019-02-17T08:25:42.912Z,91.00
2019-02-17T08:28:11.389Z,92.30
2019-02-17T08:30:39.857Z,93.90
2019-02-17T08:33:08.319Z,93.40
2019-02-17T08:35:36.783Z,93.60
2019-02-17T08:38:05.671Z,93.80
2019-02-17T08:40:34.211Z,93.80
2019-02-17T08:43:02.759Z,94.00
2019-02-17T08:45:31.215Z,94.00
2019-02-17T08:47:59.962Z,93.50
2019-02-17T08:50:28.429Z,93.30
2019-02-17T08:52:56.899Z,94.50
2019-02-17T08:55:25.345Z,95.40
2019-02-17T08:57:53.821Z,94.80
2019-02-17T09:00:22.573Z,95.50
2019-02-17T09:02:51.055Z,94.10
2019-02-17T09:05:19.846Z,94.40
2019-02-17T09:07:48.634Z,96.90
2019-02-17T09:10:17.105Z,96.40
2019-02-17T09:12:45.597Z,97.20
2019-02-17T09:15:14.122Z,96.80
2019-02-17T09:17:42.651Z,96.90
2019-02-17T09:20:11.890Z,96.80
2019-02-17T09:22:40.355Z,96.30
2019-02-17T09:25:11.370Z,95.80
2019-02-17T09:27:39.890Z,96.00
2019-02-17T09:30:11.400Z,96.40
2019-02-17T09:32:39.860Z,95.80
2019-02-17T09:35:08.410Z,93.60
2019-02-17T09:37:36.858Z,93.40
2019-02-17T09:40:07.879Z,94.70
2019-02-17T09:42:36.701Z,93.80
2019-02-17T09:45:08.070Z,94.70
2019-02-17T09:47:36.583Z,94.10
2019-02-17T09:50:08.493Z,93.60
2019-02-17T09:52:38.917Z,92.50
2019-02-17T09:55:09.257Z,92.20
2019-02-17T09:57:39.300Z,91.00
2019-02-17T10:00:12.811Z,91.20
2019-02-17T10:02:41.274Z,91.10
2019-02-17T10:05:11.862Z,91.30
2019-02-17T10:07:40.315Z,90.60
2019-02-17T10:10:20.141Z,91.20
2019-02-17T10:12:48.626Z,91.60
2019-02-17T10:15:17.101Z,92.50
2019-02-17T10:17:45.592Z,93.00
2019-02-17T10:20:15.387Z,92.90
2019-02-17T10:22:44.269Z,92.00
2019-02-17T10:25:12.893Z,91.60
2019-02-17T10:27:41.337Z,90.70
2019-02-17T10:30:12.649Z,90.60
2019-02-17T10:32:41.169Z,90.10
2019-02-17T10:35:09.787Z,89.60
2019-02-17T10:37:38.242Z,87.20
2019-02-17T10:40:09.813Z,85.90
2019-02-17T10:42:38.265Z,87.40
2019-02-17T10:45:07.881Z,86.50
2019-02-17T10:47:36.335Z,84.90
2019-02-17T10:50:08.119Z,88.70
2019-02-17T10:52:36.600Z,89.90
2019-02-17T10:55:07.539Z,89.40
2019-02-17T10:57:36.007Z,90.10
2019-02-17T11:00:18.895Z,89.80
2019-02-17T11:02:48.070Z,90.10
2019-02-17T11:05:16.968Z,89.00
2019-02-17T11:07:45.518Z,88.60
2019-02-17T11:10:14.537Z,86.50
2019-02-17T11:12:43.023Z,76.50
2019-02-17T11:15:14.708Z,76.00
2019-02-17T11:17:43.526Z,76.10
2019-02-17T11:20:12.145Z,74.10
2019-02-17T11:22:40.646Z,72.80
2019-02-17T11:25:09.261Z,76.40
2019-02-17T11:27:37.795Z,80.20
2019-02-17T11:30:09.371Z,72.30
2019-02-17T11:32:37.899Z,70.70
2019-02-17T11:35:07.110Z,78.20
2019-02-17T11:37:35.835Z,81.20
2019-02-17T11:40:06.759Z,81.70
2019-02-17T11:42:35.315Z,81.20
2019-02-17T11:45:05.850Z,79.40
2019-02-17T11:47:34.324Z,81.20
2019-02-17T11:50:02.807Z,80.60
2019-02-17T11:52:31.271Z,80.40
2019-02-17T11:55:00.116Z,73.90
2019-02-17T11:57:28.624Z,80.00
2019-02-17T11:59:57.125Z,78.60
2019-02-17T12:02:25.583Z,78.70
2019-02-17T12:04:54.057Z,78.90
2019-02-17T12:07:22.789Z,75.10
2019-02-17T12:09:51.275Z,75.30
2019-02-17T12:12:19.763Z,74.90
2019-02-17T12:14:48.231Z,75.10
2019-02-17T12:17:16.695Z,75.00
2019-02-17T12:19:45.517Z,74.50
2019-02-17T12:22:24.640Z,65.60
2019-02-17T12:24:54.468Z,66.50
2019-02-17T12:27:24.585Z,72.00
2019-02-17T12:29:54.416Z,69.90
2019-02-17T12:32:24.549Z,72.50
2019-02-17T12:34:53.011Z,70.00
2019-02-17T12:37:21.503Z,62.30
2019-02-17T12:39:49.983Z,69.40
2019-02-17T12:42:18.617Z,68.80
2019-02-17T12:44:47.096Z,66.20
2019-02-17T12:47:16.020Z,69.00
2019-02-17T12:49:44.499Z,68.60
2019-02-17T12:52:12.959Z,68.90
2019-02-17T12:54:41.430Z,68.50
2019-02-17T12:57:09.920Z,68.30
2019-02-17T12:59:38.419Z,65.60
2019-02-17T13:02:06.873Z,66.50
2019-02-17T13:04:35.705Z,63.30
2019-02-17T13:07:04.494Z,64.60
2019-02-17T13:09:32.987Z,61.60
2019-02-17T13:12:01.465Z,65.00
2019-02-17T13:14:29.925Z,64.50
2019-02-17T13:16:58.416Z,64.00
2019-02-17T13:19:27.141Z,59.40
2019-02-17T13:21:55.643Z,64.10
2019-02-17T13:24:24.123Z,60.90
2019-02-17T13:26:52.633Z,62.10
2019-02-17T13:29:21.347Z,61.90
2019-02-17T13:31:49.811Z,64.90
2019-02-17T13:34:18.310Z,61.60
2019-02-17T13:36:46.785Z,57.40
2019-02-17T13:39:15.258Z,61.80
2019-02-17T13:41:43.971Z,61.80
2019-02-17T13:44:12.449Z,64.20
2019-02-17T13:46:41.229Z,60.90
2019-02-17T13:49:09.697Z,54.90
2019-02-17T13:51:38.172Z,47.70
2019-02-17T13:54:06.661Z,56.60
2019-02-17T13:56:35.449Z,48.20
2019-02-17T13:59:03.941Z,50.60
2019-02-17T14:01:32.409Z,50.60
2019-02-17T14:04:01.215Z,52.10
2019-02-17T14:06:29.749Z,51.40
2019-02-17T14:08:58.199Z,49.50
2019-02-17T14:11:26.687Z,49.30
2019-02-17T14:13:55.133Z,48.80
2019-02-17T14:16:23.935Z,43.30
2019-02-17T14:18:52.403Z,43.20
2019-02-17T14:21:21.190Z,45.90
2019-02-17T14:23:49.683Z,43.20
2019-02-17T14:26:18.437Z,40.90
2019-02-17T14:28:46.995Z,40.80
2019-02-17T14:31:15.572Z,45.30
2019-02-17T14:33:44.110Z,42.40
2019-02-17T14:36:12.562Z,40.90
2019-02-17T14:38:41.061Z,42.40
2019-02-17T14:41:09.602Z,40.50
2019-02-17T14:43:38.095Z,41.40
2019-02-17T14:46:06.541Z,45.80
2019-02-17T14:48:35.014Z,44.20
2019-02-17T14:51:03.552Z,46.70
2019-02-17T14:53:32.043Z,47.70
2019-02-17T14:56:00.594Z,49.40
2019-02-17T14:58:29.047Z,48.00
2019-02-17T15:00:57.518Z,49.10
2019-02-17T15:03:25.992Z,48.50
2019-02-17T15:05:54.471Z,49.50
2019-02-17T15:08:22.945Z,49.00
2019-02-17T15:10:51.420Z,48.60
2019-02-17T15:13:24.492Z,48.70
2019-02-17T15:15:50.559Z,50.10
2019-02-17T15:18:19.039Z,49.00
2019-02-17T15:20:47.507Z,50.50
2019-02-17T15:23:15.975Z,50.60
2019-02-17T15:25:44.454Z,50.30
2019-02-17T15:28:12.945Z,51.40
2019-02-17T15:30:41.406Z,51.30
2019-02-17T15:33:09.893Z,50.90
2019-02-17T15:35:38.363Z,50.70
2019-02-17T15:38:07.220Z,51.00
2019-02-17T15:40:35.668Z,52.20
2019-02-17T15:43:04.148Z,49.80
2019-02-17T15:45:32.619Z,51.90
2019-02-17T15:48:01.133Z,49.70
2019-02-17T15:50:29.931Z,51.50
2019-02-17T15:52:58.391Z,50.20
2019-02-17T15:55:26.888Z,52.40
2019-02-17T15:57:55.357Z,51.80
2019-02-17T16:00:23.835Z,51.50
2019-02-17T16:02:52.366Z,53.90
2019-02-17T16:05:21.133Z,51.20
2019-02-17T16:07:49.914Z,50.90
2019-02-17T16:10:18.662Z,52.00
2019-02-17T16:12:47.129Z,52.00
2019-02-17T16:15:26.186Z,53.10
2019-02-17T16:17:54.734Z,53.40
2019-02-17T16:20:23.201Z,53.70
2019-02-17T16:22:51.672Z,53.90
2019-02-17T16:25:20.152Z,54.80
2019-02-17T16:27:48.625Z,55.40
2019-02-17T16:30:19.249Z,56.60
2019-02-17T16:32:48.043Z,56.20
2019-02-17T16:35:16.573Z,57.00
2019-02-17T16:37:45.299Z,57.30
2019-02-17T16:40:18.505Z,58.00
2019-02-17T16:42:46.991Z,58.40
2019-02-17T16:45:15.572Z,59.00
2019-02-17T16:47:46.730Z,59.00
2019-02-17T16:50:23.215Z,59.30
2019-02-17T16:52:51.978Z,59.10
2019-02-17T16:55:20.525Z,59.60
2019-02-17T16:57:49.003Z,59.90
2019-02-17T17:00:23.186Z,59.90
2019-02-17T17:02:53.083Z,60.30
2019-02-17T17:05:23.110Z,60.50
2019-02-17T17:07:51.584Z,60.90
2019-02-17T17:10:20.196Z,60.50
2019-02-17T17:12:49.156Z,62.00
2019-02-17T17:15:17.947Z,63.10
2019-02-17T17:17:46.427Z,63.30
2019-02-17T17:20:19.443Z,63.60
2019-02-17T17:22:48.221Z,63.20
2019-02-17T17:25:16.906Z,62.30
2019-02-17T17:27:45.669Z,63.50
2019-02-17T17:30:16.416Z,65.30
2019-02-17T17:32:44.904Z,63.90
2019-02-17T17:35:13.614Z,64.50
2019-02-17T17:37:42.097Z,64.20
2019-02-17T17:40:14.921Z,63.50
2019-02-17T17:42:43.390Z,63.80
2019-02-17T17:45:14.393Z,64.60
2019-02-17T17:47:42.964Z,64.80
2019-02-17T17:50:13.378Z,64.00
2019-02-17T17:52:41.833Z,64.00
2019-02-17T17:55:11.703Z,63.80
2019-02-17T17:57:40.170Z,65.00
2019-02-17T18:00:15.549Z,65.20
2019-02-17T18:02:44.090Z,64.50
2019-02-17T18:05:12.707Z,66.20
2019-02-17T18:07:41.503Z,66.10
2019-02-17T18:10:14.660Z,66.80
2019-02-17T18:12:43.186Z,66.40
2019-02-17T18:15:21.098Z,66.10
2019-02-17T18:17:54.228Z,67.50
2019-02-17T18:20:19.791Z,68.00
2019-02-17T18:22:48.271Z,69.60
2019-02-17T18:25:16.808Z,67.40
2019-02-17T18:27:45.301Z,64.90
2019-02-17T18:30:16.743Z,65.90
2019-02-17T18:32:45.483Z,64.60
2019-02-17T18:35:19.591Z,64.90
2019-02-17T18:37:44.543Z,65.30
2019-02-17T18:40:14.950Z,65.60
2019-02-17T18:42:43.779Z,67.60
2019-02-17T18:45:14.061Z,68.00
2019-02-17T18:47:42.539Z,68.80
2019-02-17T18:50:13.643Z,63.60
2019-02-17T18:52:42.171Z,64.00
2019-02-17T18:55:12.299Z,65.70
2019-02-17T18:57:49.548Z,64.40
2019-02-17T19:00:19.523Z,63.00
2019-02-17T19:02:48.308Z,60.70
2019-02-17T19:05:17.100Z,61.20
2019-02-17T19:07:45.660Z,60.30
2019-02-17T19:10:14.751Z,60.50
2019-02-17T19:12:43.674Z,60.50
2019-02-17T19:15:13.985Z,58.00
2019-02-17T19:17:42.546Z,58.30
2019-02-17T19:20:13.647Z,56.90
2019-02-17T19:22:42.118Z,57.10
2019-02-17T19:25:10.994Z,56.80
2019-02-17T19:27:39.809Z,56.80
2019-02-17T19:30:11.557Z,56.20
2019-02-17T19:32:40.022Z,56.40
2019-02-17T19:35:11.383Z,58.10
2019-02-17T19:37:39.845Z,58.00
2019-02-17T19:40:10.753Z,59.00
2019-02-17T19:42:39.227Z,58.60
2019-02-17T19:45:10.621Z,59.10
2019-02-17T19:47:39.083Z,57.30
2019-02-17T19:50:12.887Z,56.50
2019-02-17T19:52:41.503Z,56.60
2019-02-17T19:55:13.652Z,56.30
2019-02-17T19:57:42.170Z,56.90
2019-02-17T20:00:18.631Z,58.40
2019-02-17T20:03:00.728Z,57.80
2019-02-17T20:05:30.938Z,59.20
2019-02-17T20:07:59.418Z,59.10
2019-02-17T20:10:27.865Z,59.70
2019-02-17T20:12:56.649Z,59.80
2019-02-17T20:15:26.756Z,58.30
2019-02-17T20:17:55.246Z,59.40
2019-02-17T20:20:23.699Z,59.10
2019-02-17T20:22:52.175Z,58.60
2019-02-17T20:25:20.631Z,59.00
2019-02-17T20:27:49.106Z,60.00
2019-02-17T20:30:17.563Z,60.00
2019-02-17T20:32:46.392Z,62.50
2019-02-17T20:35:14.919Z,63.70
2019-02-17T20:37:43.389Z,62.90
2019-02-17T20:40:18.515Z,63.30
2019-02-17T20:42:47.058Z,63.00
2019-02-17T20:45:15.593Z,62.50
2019-02-17T20:47:44.056Z,64.30
2019-02-17T20:50:21.661Z,63.50
2019-02-17T20:52:50.434Z,61.30
2019-02-17T20:55:18.998Z,62.00
2019-02-17T20:57:47.451Z,61.70
2019-02-17T21:00:26.439Z,62.20
2019-02-17T21:02:54.908Z,63.00
2019-02-17T21:05:23.392Z,62.20
2019-02-17T21:07:51.843Z,62.70
2019-02-17T21:10:20.328Z,64.60
2019-02-17T21:12:48.920Z,66.00
2019-02-17T21:15:19.114Z,67.80
2019-02-17T21:17:47.573Z,66.50
2019-02-17T21:20:17.955Z,66.80
2019-02-17T21:22:46.497Z,66.50
2019-02-17T21:25:15.536Z,67.30
2019-02-17T21:27:44.027Z,67.30
2019-02-17T21:30:15.549Z,67.60
2019-02-17T21:32:44.367Z,66.80
2019-02-17T21:35:14.473Z,63.60
2019-02-17T21:37:42.931Z,63.60
2019-02-17T21:40:12.843Z,65.40
2019-02-17T21:42:41.361Z,65.20
2019-02-17T21:45:16.517Z,65.50
2019-02-17T21:47:45.040Z,67.20
2019-02-17T21:50:14.766Z,67.50
2019-02-17T21:52:43.374Z,65.00
2019-02-17T21:55:12.866Z,66.80
2019-02-17T21:57:41.482Z,64.20
2019-02-17T22:00:20.924Z,65.70
2019-02-17T22:02:49.414Z,63.80
2019-02-17T22:05:18.721Z,64.40
2019-02-17T22:07:47.179Z,66.60
2019-02-17T22:10:17.780Z,66.70
2019-02-17T22:12:46.236Z,66.10
2019-02-17T22:15:16.822Z,64.00
2019-02-17T22:17:45.608Z,64.50
2019-02-17T22:20:14.137Z,66.20
2019-02-17T22:22:42.611Z,65.90
2019-02-17T22:25:11.203Z,66.20
2019-02-17T22:27:39.667Z,67.80
2019-02-17T22:30:10.779Z,67.70
2019-02-17T22:32:39.332Z,65.00
2019-02-17T22:35:07.848Z,67.00
2019-02-17T22:37:36.320Z,63.60
2019-02-17T22:40:08.202Z,62.70
2019-02-17T22:42:36.763Z,64.00
2019-02-17T22:45:08.161Z,62.00
2019-02-17T22:47:36.609Z,62.90
2019-02-17T22:50:13.305Z,60.50
2019-02-17T22:52:41.842Z,59.60
2019-02-17T22:55:11.573Z,62.30
2019-02-17T22:57:40.015Z,61.80
2019-02-17T23:00:32.666Z,59.50
2019-02-17T23:03:01.195Z,59.90
2019-02-17T23:05:29.796Z,58.30
2019-02-17T23:07:58.564Z,58.20
2019-02-17T23:10:27.112Z,58.90
2019-02-17T23:12:55.572Z,59.70
2019-02-17T23:15:24.047Z,62.10
2019-02-17T23:17:52.532Z,60.00
2019-02-17T23:20:20.993Z,59.40
2019-02-17T23:22:49.467Z,62.70
2019-02-17T23:25:17.992Z,60.50
2019-02-17T23:27:46.743Z,61.10
2019-02-17T23:30:15.256Z,61.60
2019-02-17T23:32:43.830Z,59.30
2019-02-17T23:35:12.579Z,59.40
2019-02-17T23:37:41.372Z,57.70
2019-02-17T23:40:11.289Z,58.70
2019-02-17T23:42:40.080Z,60.10
2019-02-17T23:45:12.991Z,59.50
2019-02-17T23:47:41.537Z,57.90
2019-02-17T23:50:11.424Z,60.60
2019-02-17T23:52:40.062Z,61.00
2019-02-17T23:55:10.381Z,62.70
2019-02-17T23:57:39.289Z,61.60
